createdAt,value
2023-12-20T00:00:46.026Z,4.50
2023-12-20T00:03:12.752Z,4.50
2023-12-20T00:05:42.327Z,4.50
2023-12-20T00:08:09.080Z,4.50
2023-12-20T00:10:35.860Z,4.50
2023-12-20T00:13:02.745Z,4.60
2023-12-20T00:15:29.431Z,4.60
2023-12-20T00:17:56.170Z,4.60
2023-12-20T00:20:22.988Z,4.60
2023-12-20T00:22:49.677Z,4.60
2023-12-20T00:25:16.506Z,4.60
2023-12-20T00:27:43.644Z,4.60
2023-12-20T00:30:10.604Z,4.60
2023-12-20T00:32:37.474Z,4.60
2023-12-20T00:35:04.168Z,4.60
2023-12-20T00:37:30.829Z,4.50
2023-12-20T00:39:57.483Z,4.50
2023-12-20T00:42:24.201Z,4.60
2023-12-20T00:44:51.948Z,4.60
2023-12-20T00:47:18.668Z,4.60
2023-12-20T00:49:45.356Z,4.60
2023-12-20T00:52:12.080Z,4.60
2023-12-20T00:54:38.824Z,4.60
2023-12-20T00:57:05.502Z,4.70
2023-12-20T00:59:32.181Z,4.70
2023-12-20T01:01:59.014Z,4.70
2023-12-20T01:04:25.889Z,4.70
2023-12-20T01:06:52.705Z,4.70
2023-12-20T01:09:19.874Z,4.70
2023-12-20T01:11:47.598Z,4.80
2023-12-20T01:14:14.246Z,4.80
2023-12-20T01:16:40.937Z,4.80
2023-12-20T01:19:08.112Z,4.80
2023-12-20T01:21:34.797Z,4.80
2023-12-20T01:24:01.432Z,4.80
2023-12-20T01:26:28.057Z,4.80
2023-12-20T01:28:54.728Z,4.70
2023-12-20T01:31:21.468Z,4.70
2023-12-20T01:33:48.356Z,4.80
2023-12-20T01:36:15.022Z,4.80
2023-12-20T01:38:41.664Z,4.80
2023-12-20T01:41:08.354Z,4.80
2023-12-20T01:43:44.177Z,4.80
2023-12-20T01:46:17.228Z,4.80
2023-12-20T01:48:43.938Z,4.90
2023-12-20T01:51:11.059Z,4.80
2023-12-20T01:53:37.751Z,4.80
2023-12-20T01:56:04.414Z,4.80
2023-12-20T01:58:31.113Z,4.90
2023-12-20T02:00:57.937Z,4.90
2023-12-20T02:03:24.656Z,4.90
2023-12-20T02:05:51.314Z,5.00
2023-12-20T02:08:18.021Z,4.90
2023-12-20T02:10:44.751Z,5.00
2023-12-20T02:13:11.527Z,5.00
2023-12-20T02:15:38.521Z,4.90
2023-12-20T02:18:05.307Z,4.90
2023-12-20T02:20:31.957Z,5.00
2023-12-20T02:22:58.616Z,5.00
2023-12-20T02:25:25.560Z,5.00
2023-12-20T02:27:52.275Z,4.90
2023-12-20T02:30:19.028Z,5.00
2023-12-20T02:32:45.785Z,5.00
2023-12-20T02:35:12.505Z,5.00
2023-12-20T02:37:39.193Z,5.00
2023-12-20T02:40:05.860Z,4.90
2023-12-20T02:42:32.549Z,4.90
2023-12-20T02:44:59.307Z,5.00
2023-12-20T02:47:26.036Z,4.90
2023-12-20T02:49:54.186Z,4.90
2023-12-20T02:52:21.050Z,5.00
2023-12-20T02:54:47.910Z,4.90
2023-12-20T02:57:14.603Z,5.00
2023-12-20T02:59:41.304Z,5.00
2023-12-20T03:02:08.013Z,5.00
2023-12-20T03:04:34.898Z,4.90
2023-12-20T03:07:01.631Z,5.00
2023-12-20T03:09:29.645Z,5.00
2023-12-20T03:11:57.627Z,5.00
2023-12-20T03:14:24.351Z,5.00
2023-12-20T03:16:51.011Z,5.00
2023-12-20T03:19:17.846Z,4.90
2023-12-20T03:21:44.616Z,5.00
2023-12-20T03:24:11.360Z,5.00
2023-12-20T03:26:37.991Z,5.00
2023-12-20T03:29:05.186Z,4.90
2023-12-20T03:31:31.884Z,4.90
2023-12-20T03:33:58.657Z,4.90
2023-12-20T03:36:25.369Z,4.80
2023-12-20T03:38:52.047Z,4.80
2023-12-20T03:41:18.751Z,4.70
2023-12-20T03:43:45.433Z,4.70
2023-12-20T03:46:12.102Z,4.80
2023-12-20T03:48:38.844Z,4.80
2023-12-20T03:51:05.572Z,4.80
2023-12-20T03:53:32.282Z,4.80
2023-12-20T03:55:59.062Z,4.80
2023-12-20T03:58:25.762Z,4.80
2023-12-20T04:00:52.467Z,4.80
2023-12-20T04:03:19.183Z,4.80
2023-12-20T04:05:45.906Z,4.70
2023-12-20T04:08:12.684Z,4.70
2023-12-20T04:10:39.554Z,4.70
2023-12-20T04:13:06.297Z,4.70
2023-12-20T04:15:33.064Z,4.70
2023-12-20T04:17:59.893Z,4.70
2023-12-20T04:20:26.655Z,4.70
2023-12-20T04:22:53.429Z,4.70
2023-12-20T04:25:20.311Z,4.70
2023-12-20T04:27:47.257Z,4.70
2023-12-20T04:30:14.074Z,4.70
2023-12-20T04:32:40.843Z,4.70
2023-12-20T04:35:08.297Z,4.70
2023-12-20T04:37:35.067Z,4.80
2023-12-20T04:40:01.879Z,4.80
2023-12-20T04:42:29.135Z,4.80
2023-12-20T04:44:55.842Z,4.80
2023-12-20T04:47:22.956Z,4.80
2023-12-20T04:49:49.874Z,4.80
2023-12-20T04:52:16.671Z,4.80
2023-12-20T04:54:45.129Z,4.80
2023-12-20T04:57:12.023Z,4.80
2023-12-20T04:59:38.722Z,4.80
2023-12-20T05:02:05.539Z,4.90
2023-12-20T05:04:32.275Z,4.90
2023-12-20T05:06:59.228Z,4.90
2023-12-20T05:09:25.968Z,4.90
2023-12-20T05:11:52.788Z,5.00
2023-12-20T05:14:19.506Z,4.90
2023-12-20T05:16:46.195Z,4.90
2023-12-20T05:19:12.893Z,5.00
2023-12-20T05:21:39.575Z,5.00
2023-12-20T05:24:06.292Z,5.10
2023-12-20T05:26:32.927Z,5.10
2023-12-20T05:28:59.586Z,5.10
2023-12-20T05:31:26.343Z,5.00
2023-12-20T05:33:53.306Z,5.00
2023-12-20T05:36:20.086Z,5.10
2023-12-20T05:38:46.764Z,5.00
2023-12-20T05:41:13.406Z,5.10
2023-12-20T05:43:40.050Z,5.10
2023-12-20T05:46:06.812Z,5.10
2023-12-20T05:48:33.530Z,5.10
2023-12-20T05:51:00.223Z,5.10
2023-12-20T05:53:26.995Z,5.10
2023-12-20T05:55:53.645Z,5.10
2023-12-20T05:58:20.354Z,5.10
2023-12-20T06:00:47.067Z,5.20
2023-12-20T06:03:13.763Z,5.20
2023-12-20T06:05:40.394Z,5.20
2023-12-20T06:08:07.394Z,5.20
2023-12-20T06:10:34.048Z,5.20
2023-12-20T06:13:01.998Z,5.20
2023-12-20T06:15:28.816Z,5.20
2023-12-20T06:17:55.632Z,5.20
2023-12-20T06:20:22.700Z,5.20
2023-12-20T06:22:49.486Z,5.20
2023-12-20T06:25:16.228Z,5.30
2023-12-20T06:27:43.008Z,5.30
2023-12-20T06:30:10.509Z,5.20
2023-12-20T06:32:37.319Z,5.20
2023-12-20T06:35:04.126Z,5.20
2023-12-20T06:37:30.941Z,5.20
2023-12-20T06:39:58.146Z,5.20
2023-12-20T06:42:24.935Z,5.20
2023-12-20T06:44:51.607Z,5.30
2023-12-20T06:47:18.326Z,5.30
2023-12-20T06:49:45.149Z,5.30
2023-12-20T06:52:11.856Z,5.40
2023-12-20T06:54:38.535Z,5.30
2023-12-20T06:57:05.862Z,5.40
2023-12-20T06:59:32.595Z,5.40
2023-12-20T07:01:59.343Z,5.40
2023-12-20T07:04:26.197Z,5.40
2023-12-20T07:06:55.205Z,5.50
2023-12-20T07:09:22.008Z,5.50
2023-12-20T07:11:48.902Z,5.50
2023-12-20T07:14:15.546Z,5.60
2023-12-20T07:16:42.166Z,5.60
2023-12-20T07:19:09.266Z,5.50
2023-12-20T07:21:35.981Z,5.50
2023-12-20T07:24:02.650Z,5.50
2023-12-20T07:26:29.487Z,5.50
2023-12-20T07:28:56.157Z,5.50
2023-12-20T07:31:22.992Z,5.50
2023-12-20T07:33:50.117Z,5.50
2023-12-20T07:36:16.890Z,5.50
2023-12-20T07:38:45.351Z,5.60
2023-12-20T07:41:12.026Z,5.50
2023-12-20T07:43:38.792Z,5.50
2023-12-20T07:46:05.610Z,5.50
2023-12-20T07:48:32.311Z,5.60
2023-12-20T07:50:59.068Z,5.70
2023-12-20T07:53:25.710Z,5.70
2023-12-20T07:55:53.678Z,5.70
2023-12-20T07:58:20.352Z,5.80
2023-12-20T08:00:47.127Z,5.70
2023-12-20T08:03:13.863Z,5.70
2023-12-20T08:05:43.875Z,5.70
2023-12-20T08:08:10.610Z,5.80
2023-12-20T08:10:37.307Z,5.80
2023-12-20T08:13:03.973Z,5.80
2023-12-20T08:15:30.694Z,5.80
2023-12-20T08:17:57.416Z,5.80
2023-12-20T08:20:30.413Z,5.80
2023-12-20T08:23:03.940Z,5.80
2023-12-20T08:25:30.713Z,5.90
2023-12-20T08:27:57.403Z,5.90
2023-12-20T08:30:24.195Z,5.90
2023-12-20T08:32:50.897Z,6.00
2023-12-20T08:35:18.721Z,6.00
2023-12-20T08:37:45.709Z,6.00
2023-12-20T08:40:12.548Z,6.00
2023-12-20T08:42:39.379Z,6.00
2023-12-20T08:45:06.057Z,6.00
2023-12-20T08:47:32.795Z,6.00
2023-12-20T08:50:01.418Z,6.00
2023-12-20T08:52:28.481Z,6.10
2023-12-20T08:54:55.239Z,6.10
2023-12-20T08:57:22.519Z,6.10
2023-12-20T08:59:49.298Z,6.20
2023-12-20T09:02:16.531Z,6.30
2023-12-20T09:04:43.347Z,6.30
2023-12-20T09:07:10.062Z,6.40
2023-12-20T09:09:36.888Z,6.50
2023-12-20T09:12:03.614Z,6.50
2023-12-20T09:14:30.313Z,6.60
2023-12-20T09:16:57.976Z,6.70
2023-12-20T09:19:24.690Z,6.70
2023-12-20T09:21:51.469Z,6.80
2023-12-20T09:24:18.177Z,6.90
2023-12-20T09:26:45.321Z,7.00
2023-12-20T09:31:45.114Z,7.10
2023-12-20T09:34:12.167Z,7.10
2023-12-20T09:36:41.960Z,7.10
2023-12-20T09:39:08.754Z,7.10
2023-12-20T09:41:35.452Z,7.20
2023-12-20T09:44:02.364Z,7.30
2023-12-20T09:46:31.057Z,7.40
2023-12-20T09:48:58.023Z,7.50
2023-12-20T09:51:24.729Z,7.60
2023-12-20T09:53:51.424Z,7.60
2023-12-20T09:56:18.083Z,7.70
2023-12-20T09:58:44.737Z,7.70
2023-12-20T10:01:11.697Z,7.80
2023-12-20T10:03:38.652Z,7.80
2023-12-20T10:06:05.609Z,7.90
2023-12-20T10:08:33.483Z,7.90
2023-12-20T10:11:03.919Z,7.90
2023-12-20T10:13:30.770Z,8.00
2023-12-20T10:15:58.584Z,8.00
2023-12-20T10:18:25.341Z,8.00
2023-12-20T10:21:04.436Z,8.10
2023-12-20T10:23:31.935Z,8.10
2023-12-20T10:25:59.351Z,8.10
2023-12-20T10:28:29.032Z,8.20
2023-12-20T10:30:58.148Z,8.20
2023-12-20T10:33:24.933Z,8.20
2023-12-20T10:35:51.881Z,8.30
2023-12-20T10:38:18.478Z,8.30
2023-12-20T10:40:45.263Z,8.40
2023-12-20T10:43:12.161Z,8.50
2023-12-20T10:45:38.954Z,8.40
2023-12-20T10:48:05.921Z,8.50
2023-12-20T10:50:32.777Z,8.50
2023-12-20T10:52:59.609Z,8.60
2023-12-20T10:55:26.394Z,8.60
2023-12-20T10:57:53.857Z,8.60
2023-12-20T11:00:20.760Z,8.70
2023-12-20T11:02:47.924Z,8.70
2023-12-20T11:05:14.956Z,8.80
2023-12-20T11:07:41.711Z,8.70
2023-12-20T11:10:08.461Z,8.70
2023-12-20T11:12:35.169Z,8.70
2023-12-20T11:15:05.518Z,8.70
2023-12-20T11:17:32.373Z,8.80
2023-12-20T11:20:02.789Z,8.70
2023-12-20T11:22:29.761Z,8.70
2023-12-20T11:24:57.238Z,8.70
2023-12-20T11:27:23.965Z,8.70
2023-12-20T11:29:50.676Z,8.70
2023-12-20T11:32:17.436Z,8.70
2023-12-20T11:34:44.197Z,8.70
2023-12-20T11:37:11.036Z,8.80
2023-12-20T11:39:37.759Z,8.80
2023-12-20T11:42:04.402Z,8.90
2023-12-20T11:44:31.062Z,8.90
2023-12-20T11:46:57.758Z,8.90
2023-12-20T11:49:24.636Z,9.00
2023-12-20T11:51:51.942Z,9.00
2023-12-20T11:54:19.110Z,9.10
2023-12-20T11:56:45.855Z,9.10
2023-12-20T11:59:20.305Z,9.20
2023-12-20T12:01:51.727Z,9.20
2023-12-20T12:04:19.205Z,9.30
2023-12-20T12:06:46.818Z,9.40
2023-12-20T12:09:13.612Z,9.50
2023-12-20T12:11:40.295Z,9.50
2023-12-20T12:14:07.024Z,9.60
2023-12-20T12:16:33.771Z,9.50
2023-12-20T12:19:00.605Z,9.60
2023-12-20T12:21:32.981Z,9.60
2023-12-20T12:24:00.647Z,9.60
2023-12-20T12:26:27.324Z,9.60
2023-12-20T12:28:54.018Z,9.60
2023-12-20T12:31:20.799Z,9.60
2023-12-20T12:33:47.739Z,9.50
2023-12-20T12:36:17.250Z,9.50
2023-12-20T12:38:44.013Z,9.50
2023-12-20T12:41:11.834Z,9.60
2023-12-20T12:43:38.685Z,9.60
2023-12-20T12:46:05.511Z,9.70
2023-12-20T12:48:32.696Z,9.90
2023-12-20T12:51:00.419Z,9.90
2023-12-20T12:53:28.062Z,10.00
2023-12-20T12:55:55.877Z,10.00
2023-12-20T12:58:23.327Z,10.00
2023-12-20T13:00:50.272Z,10.20
2023-12-20T13:03:17.078Z,10.20
2023-12-20T13:05:46.789Z,10.10
2023-12-20T13:08:14.814Z,10.20
2023-12-20T13:10:41.502Z,10.20
2023-12-20T13:13:08.327Z,10.30
2023-12-20T13:15:34.983Z,10.40
2023-12-20T13:18:01.886Z,10.40
2023-12-20T13:20:28.830Z,10.30
2023-12-20T13:22:55.576Z,10.40
2023-12-20T13:25:22.411Z,10.40
2023-12-20T13:27:49.591Z,10.40
2023-12-20T13:30:16.404Z,10.40
2023-12-20T13:32:43.248Z,10.40
2023-12-20T13:35:09.978Z,10.40
2023-12-20T13:37:36.884Z,10.40
2023-12-20T13:40:05.835Z,10.40
2023-12-20T13:42:32.501Z,10.40
2023-12-20T13:44:59.205Z,10.40
2023-12-20T13:47:26.871Z,10.40
2023-12-20T13:49:53.996Z,10.40
2023-12-20T13:52:20.952Z,10.40
2023-12-20T13:54:47.735Z,10.40
2023-12-20T13:57:22.131Z,10.40
2023-12-20T13:59:59.229Z,10.30
2023-12-20T14:02:28.011Z,10.40
2023-12-20T14:04:54.847Z,10.40
2023-12-20T14:07:22.362Z,10.30
2023-12-20T14:09:49.680Z,10.30
2023-12-20T14:12:16.439Z,10.40
2023-12-20T14:14:43.097Z,10.40
2023-12-20T14:17:10.380Z,10.40
2023-12-20T14:19:37.383Z,10.40
2023-12-20T14:22:05.703Z,10.40
2023-12-20T14:24:32.544Z,10.40
2023-12-20T14:26:59.889Z,10.40
2023-12-20T14:29:27.511Z,10.40
2023-12-20T14:31:54.354Z,10.40
2023-12-20T14:34:21.152Z,10.40
2023-12-20T14:36:48.046Z,10.30
2023-12-20T14:39:14.922Z,10.40
2023-12-20T14:41:41.575Z,10.40
2023-12-20T14:44:08.252Z,10.40
2023-12-20T14:46:34.995Z,10.40
2023-12-20T14:49:03.751Z,10.40
2023-12-20T14:51:30.429Z,10.40
2023-12-20T14:53:57.208Z,10.30
2023-12-20T14:56:23.842Z,10.40
2023-12-20T14:58:50.472Z,10.30
2023-12-20T15:01:18.728Z,10.30
2023-12-20T15:03:45.521Z,10.30
2023-12-20T15:06:13.086Z,10.30
2023-12-20T15:08:40.107Z,10.30
2023-12-20T15:11:06.769Z,10.30
2023-12-20T15:13:34.064Z,10.30
2023-12-20T15:16:00.931Z,10.30
2023-12-20T15:18:27.756Z,10.30
2023-12-20T15:20:54.471Z,10.30
2023-12-20T15:23:23.154Z,10.30
2023-12-20T15:25:49.875Z,10.30
2023-12-20T15:28:16.542Z,10.30
2023-12-20T15:30:43.302Z,10.20
2023-12-20T15:33:10.059Z,10.30
2023-12-20T15:35:36.753Z,10.30
2023-12-20T15:38:04.058Z,10.30
2023-12-20T15:40:31.026Z,10.30
2023-12-20T15:42:57.767Z,10.20
2023-12-20T15:45:24.409Z,10.20
2023-12-20T15:47:51.454Z,10.20
2023-12-20T15:50:18.612Z,10.20
2023-12-20T15:52:45.506Z,10.30
2023-12-20T15:55:12.383Z,10.20
2023-12-20T15:57:46.150Z,10.20
2023-12-20T16:00:19.065Z,10.20
2023-12-20T16:02:45.781Z,10.20
2023-12-20T16:05:12.634Z,10.20
2023-12-20T16:07:39.574Z,10.10
2023-12-20T16:10:06.564Z,10.20
2023-12-20T16:12:33.454Z,10.20
2023-12-20T16:15:00.281Z,10.20
2023-12-20T16:17:27.044Z,10.20
2023-12-20T16:19:53.963Z,10.20
2023-12-20T16:22:20.772Z,10.20
2023-12-20T16:24:47.678Z,10.20
2023-12-20T16:27:14.448Z,10.20
2023-12-20T16:29:41.440Z,10.20
2023-12-20T16:32:08.091Z,10.20
2023-12-20T16:34:34.842Z,10.20
2023-12-20T16:37:02.761Z,10.20
2023-12-20T16:39:29.634Z,10.20
2023-12-20T16:41:56.386Z,10.20
2023-12-20T16:44:23.100Z,10.20
2023-12-20T16:46:49.789Z,10.20
2023-12-20T16:49:16.625Z,10.30
2023-12-20T16:51:43.584Z,10.20
2023-12-20T16:54:10.230Z,10.20
2023-12-20T16:56:36.875Z,10.20
2023-12-20T16:59:03.623Z,10.20
2023-12-20T17:01:30.630Z,10.20
2023-12-20T17:03:57.601Z,10.20
2023-12-20T17:06:26.089Z,10.20
2023-12-20T17:08:53.640Z,10.20
2023-12-20T17:11:22.456Z,10.20
2023-12-20T17:13:49.179Z,10.10
2023-12-20T17:16:15.918Z,10.10
2023-12-20T17:18:42.642Z,10.10
2023-12-20T17:21:09.674Z,10.10
2023-12-20T17:23:36.559Z,10.10
2023-12-20T17:26:03.295Z,10.10
2023-12-20T17:28:30.034Z,10.20
2023-12-20T17:30:56.829Z,10.10
2023-12-20T17:33:24.046Z,10.10
2023-12-20T17:35:52.403Z,10.20
2023-12-20T17:38:20.194Z,10.10
2023-12-20T17:40:46.939Z,10.10
2023-12-20T17:43:13.659Z,10.10
2023-12-20T17:45:40.360Z,10.10
2023-12-20T17:48:07.106Z,10.10
2023-12-20T17:50:33.997Z,10.10
2023-12-20T17:53:00.782Z,10.10
2023-12-20T17:55:27.833Z,10.10
2023-12-20T17:57:54.693Z,10.10
2023-12-20T18:00:21.441Z,10.10
2023-12-20T18:02:48.130Z,10.10
2023-12-20T18:05:14.888Z,10.10
2023-12-20T18:07:43.309Z,10.10
2023-12-20T18:10:10.386Z,10.10
2023-12-20T18:12:37.157Z,10.10
2023-12-20T18:15:04.127Z,10.10
2023-12-20T18:17:30.859Z,10.10
2023-12-20T18:20:00.759Z,10.10
2023-12-20T18:22:27.659Z,10.10
2023-12-20T18:24:55.268Z,10.10
2023-12-20T18:27:22.050Z,10.10
2023-12-20T18:29:48.695Z,10.10
2023-12-20T18:32:15.355Z,10.10
2023-12-20T18:34:42.150Z,10.10
2023-12-20T18:37:11.858Z,10.10
2023-12-20T18:39:41.653Z,10.10
2023-12-20T18:42:09.096Z,10.10
2023-12-20T18:44:35.812Z,10.10
2023-12-20T18:47:02.783Z,10.10
2023-12-20T18:49:29.538Z,10.10
2023-12-20T18:51:56.298Z,10.00
2023-12-20T18:54:23.400Z,10.10
2023-12-20T18:56:50.657Z,10.00
2023-12-20T18:59:20.846Z,10.00
2023-12-20T19:01:47.721Z,10.00
2023-12-20T19:04:14.947Z,10.00
2023-12-20T19:06:41.838Z,10.00
2023-12-20T19:09:08.870Z,10.00
2023-12-20T19:11:36.045Z,10.00
2023-12-20T19:14:02.812Z,10.10
2023-12-20T19:16:29.591Z,10.10
2023-12-20T19:18:56.313Z,10.10
2023-12-20T19:21:23.010Z,10.00
2023-12-20T19:23:49.676Z,10.00
2023-12-20T19:26:16.367Z,10.00
2023-12-20T19:28:45.419Z,10.10
2023-12-20T19:31:12.872Z,10.10
2023-12-20T19:33:39.772Z,10.10
2023-12-20T19:36:06.457Z,10.10
2023-12-20T19:38:33.187Z,10.10
2023-12-20T19:40:59.881Z,10.10
2023-12-20T19:43:26.581Z,10.10
2023-12-20T19:45:53.362Z,10.10
2023-12-20T19:48:20.103Z,10.00
2023-12-20T19:50:48.892Z,10.00
2023-12-20T19:53:15.668Z,10.00
2023-12-20T19:55:42.416Z,9.90
2023-12-20T19:58:09.315Z,9.90
2023-12-20T20:00:42.287Z,9.90
2023-12-20T20:03:17.048Z,9.90
2023-12-20T20:05:43.935Z,9.80
2023-12-20T20:08:10.723Z,9.80
2023-12-20T20:10:37.405Z,9.70
2023-12-20T20:13:04.185Z,9.80
2023-12-20T20:15:30.901Z,9.70
2023-12-20T20:17:57.599Z,9.70
2023-12-20T20:20:24.472Z,9.80
2023-12-20T20:22:51.173Z,9.70
2023-12-20T20:25:17.932Z,9.60
2023-12-20T20:27:44.860Z,9.60
2023-12-20T20:30:11.707Z,9.60
2023-12-20T20:32:38.436Z,9.60
2023-12-20T20:35:05.145Z,9.50
2023-12-20T20:37:32.027Z,9.60
2023-12-20T20:40:01.250Z,9.50
2023-12-20T20:42:29.848Z,9.50
2023-12-20T20:44:56.549Z,9.50
2023-12-20T20:47:23.318Z,9.50
2023-12-20T20:49:50.150Z,9.50
2023-12-20T20:52:17.302Z,9.50
2023-12-20T20:54:44.025Z,9.50
2023-12-20T20:57:10.682Z,9.60
2023-12-20T20:59:37.374Z,9.50
2023-12-20T21:02:04.652Z,9.50
2023-12-20T21:04:32.537Z,9.60
2023-12-20T21:06:59.328Z,9.60
2023-12-20T21:09:26.360Z,9.60
2023-12-20T21:11:53.029Z,9.60
2023-12-20T21:14:19.701Z,9.60
2023-12-20T21:16:46.453Z,9.60
2023-12-20T21:19:13.621Z,9.60
2023-12-20T21:21:40.363Z,9.60
2023-12-20T21:24:07.167Z,9.60
2023-12-20T21:26:33.863Z,9.60
2023-12-20T21:29:00.578Z,9.60
2023-12-20T21:31:27.421Z,9.60
2023-12-20T21:33:55.996Z,9.60
2023-12-20T21:36:22.760Z,9.60
2023-12-20T21:38:49.640Z,9.50
2023-12-20T21:41:22.841Z,9.50
2023-12-20T21:43:50.472Z,9.50
2023-12-20T21:46:17.166Z,9.50
2023-12-20T21:48:43.958Z,9.50
2023-12-20T21:51:10.916Z,9.50
2023-12-20T21:53:37.688Z,9.50
2023-12-20T21:56:04.973Z,9.50
2023-12-20T21:58:31.797Z,9.50
2023-12-20T22:01:00.219Z,9.60
2023-12-20T22:03:28.328Z,9.60
2023-12-20T22:05:55.113Z,9.60
2023-12-20T22:08:22.932Z,9.70
2023-12-20T22:10:50.495Z,9.70
2023-12-20T22:13:17.301Z,9.70
2023-12-20T22:15:44.055Z,9.70
2023-12-20T22:18:10.760Z,9.70
2023-12-20T22:20:40.756Z,9.70
2023-12-20T22:23:08.841Z,9.70
2023-12-20T22:25:36.301Z,9.70
2023-12-20T22:28:03.145Z,9.80
2023-12-20T22:30:29.859Z,9.80
2023-12-20T22:32:56.607Z,9.80
2023-12-20T22:35:23.347Z,9.80
2023-12-20T22:37:50.257Z,9.90
2023-12-20T22:40:17.066Z,9.90
2023-12-20T22:42:43.779Z,10.00
2023-12-20T22:45:10.457Z,10.00
2023-12-20T22:47:37.147Z,10.00
2023-12-20T22:50:04.017Z,10.10
2023-12-20T22:52:30.899Z,10.20
2023-12-20T22:54:57.594Z,10.20
2023-12-20T22:57:24.371Z,10.20
2023-12-20T22:59:51.023Z,10.30
2023-12-20T23:02:17.806Z,10.30
2023-12-20T23:04:44.526Z,10.30
2023-12-20T23:07:11.452Z,10.30
2023-12-20T23:09:39.799Z,10.30
2023-12-20T23:12:06.599Z,10.30
2023-12-20T23:14:33.241Z,10.30
2023-12-20T23:16:59.946Z,10.40
2023-12-20T23:19:26.850Z,10.40
2023-12-20T23:21:53.648Z,10.40
2023-12-20T23:24:20.416Z,10.40
2023-12-20T23:26:47.656Z,10.40
2023-12-20T23:29:14.336Z,10.40
2023-12-20T23:31:41.005Z,10.40
2023-12-20T23:34:08.827Z,10.50
2023-12-20T23:36:35.625Z,10.50
2023-12-20T23:39:02.343Z,10.40
2023-12-20T23:41:29.841Z,10.40
2023-12-20T23:43:56.599Z,10.40
2023-12-20T23:46:23.368Z,10.50
2023-12-20T23:48:50.085Z,10.40
2023-12-20T23:51:16.832Z,10.40
2023-12-20T23:53:43.546Z,10.40
2023-12-20T23:56:12.020Z,10.40
2023-12-20T23:58:40.362Z,10.40
